sensor_id;sensor_type;location;lat;lon;timestamp;P1;durP1;ratioP1;P2;durP2;ratioP2
59366;SDS011;45163;47.690;11.770;2022-09-29T00:00:48;1.27;;;1.07;;
59366;SDS011;45163;47.690;11.770;2022-09-29T00:03:16;0.83;;;0.83;;
59366;SDS011;45163;47.690;11.770;2022-09-29T00:05:47;0.57;;;0.57;;
59366;SDS011;45163;47.690;11.770;2022-09-29T00:08:17;0.50;;;0.50;;
59366;SDS011;45163;47.690;11.770;2022-09-29T00:10:45;0.60;;;0.60;;
59366;SDS011;45163;47.690;11.770;2022-09-29T00:13:13;0.43;;;0.43;;
59366;SDS011;45163;47.690;11.770;2022-09-29T00:15:40;0.40;;;0.40;;
59366;SDS011;45163;47.690;11.770;2022-09-29T00:18:08;0.30;;;0.30;;
59366;SDS011;45163;47.690;11.770;2022-09-29T00:20:36;0.97;;;0.63;;
59366;SDS011;45163;47.690;11.770;2022-09-29T00:23:04;0.67;;;0.50;;
59366;SDS011;45163;47.690;11.770;2022-09-29T00:25:31;0.37;;;0.37;;
59366;SDS011;45163;47.690;11.770;2022-09-29T00:27:58;0.60;;;0.60;;
59366;SDS011;45163;47.690;11.770;2022-09-29T00:30:25;0.30;;;0.30;;
59366;SDS011;45163;47.690;11.770;2022-09-29T00:32:53;1.47;;;0.83;;
59366;SDS011;45163;47.690;11.770;2022-09-29T00:35:21;1.77;;;0.63;;
59366;SDS011;45163;47.690;11.770;2022-09-29T00:37:49;0.23;;;0.23;;
59366;SDS011;45163;47.690;11.770;2022-09-29T00:40:19;0.20;;;0.20;;
59366;SDS011;45163;47.690;11.770;2022-09-29T00:42:46;0.40;;;0.40;;
59366;SDS011;45163;47.690;11.770;2022-09-29T00:45:18;0.33;;;0.33;;
59366;SDS011;45163;47.690;11.770;2022-09-29T00:47:49;0.83;;;0.23;;
59366;SDS011;45163;47.690;11.770;2022-09-29T00:50:24;0.60;;;0.40;;
59366;SDS011;45163;47.690;11.770;2022-09-29T00:53:05;0.40;;;0.33;;
59366;SDS011;45163;47.690;11.770;2022-09-29T00:55:37;0.20;;;0.20;;
59366;SDS011;45163;47.690;11.770;2022-09-29T00:58:18;0.80;;;0.60;;
59366;SDS011;45163;47.690;11.770;2022-09-29T01:00:53;0.20;;;0.20;;
59366;SDS011;45163;47.690;11.770;2022-09-29T01:03:20;0.80;;;0.40;;
59366;SDS011;45163;47.690;11.770;2022-09-29T01:05:50;0.30;;;0.30;;
59366;SDS011;45163;47.690;11.770;2022-09-29T01:08:22;0.50;;;0.50;;
59366;SDS011;45163;47.690;11.770;2022-09-29T01:10:52;1.60;;;0.40;;
59366;SDS011;45163;47.690;11.770;2022-09-29T01:13:18;0.20;;;0.20;;
59366;SDS011;45163;47.690;11.770;2022-09-29T01:15:44;0.40;;;0.40;;
59366;SDS011;45163;47.690;11.770;2022-09-29T01:18:10;3.83;;;0.40;;
59366;SDS011;45163;47.690;11.770;2022-09-29T01:21:00;0.40;;;0.40;;
59366;SDS011;45163;47.690;11.770;2022-09-29T01:31:58;0.30;;;0.30;;
59366;SDS011;45163;47.690;11.770;2022-09-29T01:34:39;0.37;;;0.37;;
59366;SDS011;45163;47.690;11.770;2022-09-29T01:39:40;1.53;;;0.40;;
59366;SDS011;45163;47.690;11.770;2022-09-29T01:42:16;2.87;;;0.40;;
59366;SDS011;45163;47.690;11.770;2022-09-29T01:47:23;0.50;;;0.50;;
59366;SDS011;45163;47.690;11.770;2022-09-29T01:49:52;1.03;;;0.70;;
59366;SDS011;45163;47.690;11.770;2022-09-29T01:52:23;2.40;;;0.60;;
59366;SDS011;45163;47.690;11.770;2022-09-29T01:54:56;0.50;;;0.50;;
59366;SDS011;45163;47.690;11.770;2022-09-29T01:57:44;1.07;;;0.40;;
59366;SDS011;45163;47.690;11.770;2022-09-29T02:00:16;1.23;;;0.60;;
59366;SDS011;45163;47.690;11.770;2022-09-29T02:05:32;0.40;;;0.40;;
59366;SDS011;45163;47.690;11.770;2022-09-29T02:13:43;0.93;;;0.87;;
59366;SDS011;45163;47.690;11.770;2022-09-29T02:16:17;1.27;;;0.60;;
59366;SDS011;45163;47.690;11.770;2022-09-29T02:21:20;0.63;;;0.63;;
59366;SDS011;45163;47.690;11.770;2022-09-29T02:23:48;3.30;;;0.50;;
59366;SDS011;45163;47.690;11.770;2022-09-29T02:26:16;0.37;;;0.37;;
59366;SDS011;45163;47.690;11.770;2022-09-29T02:28:46;0.50;;;0.50;;
59366;SDS011;45163;47.690;11.770;2022-09-29T02:31:13;1.30;;;0.43;;
59366;SDS011;45163;47.690;11.770;2022-09-29T02:33:39;0.73;;;0.30;;
59366;SDS011;45163;47.690;11.770;2022-09-29T02:39:13;0.57;;;0.40;;
59366;SDS011;45163;47.690;11.770;2022-09-29T02:42:00;0.47;;;0.43;;
59366;SDS011;45163;47.690;11.770;2022-09-29T02:44:35;0.33;;;0.33;;
59366;SDS011;45163;47.690;11.770;2022-09-29T02:58:17;0.53;;;0.53;;
59366;SDS011;45163;47.690;11.770;2022-09-29T03:00:51;0.50;;;0.50;;
59366;SDS011;45163;47.690;11.770;2022-09-29T03:03:21;0.60;;;0.60;;
59366;SDS011;45163;47.690;11.770;2022-09-29T03:05:50;0.53;;;0.53;;
59366;SDS011;45163;47.690;11.770;2022-09-29T03:08:19;1.43;;;0.50;;
59366;SDS011;45163;47.690;11.770;2022-09-29T03:10:48;0.73;;;0.50;;
59366;SDS011;45163;47.690;11.770;2022-09-29T03:13:21;0.47;;;0.40;;
59366;SDS011;45163;47.690;11.770;2022-09-29T03:15:51;0.30;;;0.30;;
59366;SDS011;45163;47.690;11.770;2022-09-29T03:18:25;0.60;;;0.60;;
59366;SDS011;45163;47.690;11.770;2022-09-29T03:20:53;0.50;;;0.50;;
59366;SDS011;45163;47.690;11.770;2022-09-29T03:23:21;0.90;;;0.67;;
59366;SDS011;45163;47.690;11.770;2022-09-29T03:25:50;1.20;;;0.60;;
59366;SDS011;45163;47.690;11.770;2022-09-29T03:28:18;0.40;;;0.40;;
59366;SDS011;45163;47.690;11.770;2022-09-29T03:30:45;0.60;;;0.60;;
59366;SDS011;45163;47.690;11.770;2022-09-29T03:33:15;0.70;;;0.70;;
59366;SDS011;45163;47.690;11.770;2022-09-29T03:35:45;1.53;;;0.70;;
59366;SDS011;45163;47.690;11.770;2022-09-29T03:38:13;4.70;;;1.13;;
59366;SDS011;45163;47.690;11.770;2022-09-29T03:40:51;1.53;;;0.90;;
59366;SDS011;45163;47.690;11.770;2022-09-29T03:43:21;1.00;;;0.90;;
59366;SDS011;45163;47.690;11.770;2022-09-29T03:45:52;0.90;;;0.80;;
59366;SDS011;45163;47.690;11.770;2022-09-29T03:48:23;0.60;;;0.60;;
59366;SDS011;45163;47.690;11.770;2022-09-29T03:50:54;3.80;;;0.50;;
59366;SDS011;45163;47.690;11.770;2022-09-29T03:53:27;1.13;;;0.60;;
59366;SDS011;45163;47.690;11.770;2022-09-29T03:56:03;0.60;;;0.60;;
59366;SDS011;45163;47.690;11.770;2022-09-29T03:58:46;0.77;;;0.60;;
59366;SDS011;45163;47.690;11.770;2022-09-29T04:01:19;0.57;;;0.57;;
59366;SDS011;45163;47.690;11.770;2022-09-29T04:03:46;0.43;;;0.43;;
59366;SDS011;45163;47.690;11.770;2022-09-29T04:06:20;0.50;;;0.50;;
59366;SDS011;45163;47.690;11.770;2022-09-29T04:08:48;0.60;;;0.60;;
59366;SDS011;45163;47.690;11.770;2022-09-29T04:11:16;1.10;;;0.87;;
59366;SDS011;45163;47.690;11.770;2022-09-29T04:13:43;0.93;;;0.80;;
59366;SDS011;45163;47.690;11.770;2022-09-29T04:16:11;0.90;;;0.90;;
59366;SDS011;45163;47.690;11.770;2022-09-29T04:18:41;0.93;;;0.60;;
59366;SDS011;45163;47.690;11.770;2022-09-29T04:21:07;5.23;;;1.03;;
59366;SDS011;45163;47.690;11.770;2022-09-29T04:23:39;0.77;;;0.77;;
59366;SDS011;45163;47.690;11.770;2022-09-29T04:26:09;1.30;;;0.90;;
59366;SDS011;45163;47.690;11.770;2022-09-29T04:28:37;0.80;;;0.80;;
59366;SDS011;45163;47.690;11.770;2022-09-29T04:31:05;1.50;;;1.00;;
59366;SDS011;45163;47.690;11.770;2022-09-29T04:33:32;0.83;;;0.83;;
59366;SDS011;45163;47.690;11.770;2022-09-29T04:36:00;3.67;;;0.97;;
59366;SDS011;45163;47.690;11.770;2022-09-29T04:38:27;2.23;;;1.70;;
59366;SDS011;45163;47.690;11.770;2022-09-29T04:40:57;5.70;;;1.67;;
59366;SDS011;45163;47.690;11.770;2022-09-29T04:43:25;2.17;;;0.90;;
59366;SDS011;45163;47.690;11.770;2022-09-29T04:45:52;0.53;;;0.53;;
59366;SDS011;45163;47.690;11.770;2022-09-29T04:48:25;0.63;;;0.63;;
59366;SDS011;45163;47.690;11.770;2022-09-29T04:51:04;0.50;;;0.50;;
59366;SDS011;45163;47.690;11.770;2022-09-29T04:53:37;0.50;;;0.50;;
59366;SDS011;45163;47.690;11.770;2022-09-29T04:56:12;2.20;;;1.00;;
59366;SDS011;45163;47.690;11.770;2022-09-29T04:58:44;0.57;;;0.57;;
59366;SDS011;45163;47.690;11.770;2022-09-29T05:01:14;1.47;;;0.60;;
59366;SDS011;45163;47.690;11.770;2022-09-29T05:03:42;0.73;;;0.73;;
59366;SDS011;45163;47.690;11.770;2022-09-29T05:06:09;1.20;;;1.10;;
59366;SDS011;45163;47.690;11.770;2022-09-29T05:08:39;0.70;;;0.70;;
59366;SDS011;45163;47.690;11.770;2022-09-29T05:11:10;1.30;;;1.10;;
59366;SDS011;45163;47.690;11.770;2022-09-29T05:13:41;1.10;;;1.03;;
59366;SDS011;45163;47.690;11.770;2022-09-29T05:16:10;1.20;;;1.10;;
59366;SDS011;45163;47.690;11.770;2022-09-29T05:18:40;1.37;;;1.10;;
59366;SDS011;45163;47.690;11.770;2022-09-29T05:21:09;3.00;;;1.13;;
59366;SDS011;45163;47.690;11.770;2022-09-29T05:23:38;1.30;;;1.20;;
59366;SDS011;45163;47.690;11.770;2022-09-29T05:26:09;1.47;;;1.37;;
59366;SDS011;45163;47.690;11.770;2022-09-29T05:28:44;1.50;;;1.30;;
59366;SDS011;45163;47.690;11.770;2022-09-29T05:31:23;2.30;;;1.30;;
59366;SDS011;45163;47.690;11.770;2022-09-29T05:33:50;0.87;;;0.87;;
59366;SDS011;45163;47.690;11.770;2022-09-29T05:36:18;1.40;;;1.20;;
59366;SDS011;45163;47.690;11.770;2022-09-29T05:38:47;0.77;;;0.77;;
59366;SDS011;45163;47.690;11.770;2022-09-29T05:41:13;0.67;;;0.67;;
59366;SDS011;45163;47.690;11.770;2022-09-29T05:43:47;2.83;;;1.50;;
59366;SDS011;45163;47.690;11.770;2022-09-29T05:46:14;2.97;;;2.30;;
59366;SDS011;45163;47.690;11.770;2022-09-29T05:48:41;3.30;;;2.70;;
59366;SDS011;45163;47.690;11.770;2022-09-29T05:51:09;2.50;;;2.30;;
59366;SDS011;45163;47.690;11.770;2022-09-29T05:53:37;2.10;;;1.80;;
59366;SDS011;45163;47.690;11.770;2022-09-29T05:56:07;1.50;;;1.40;;
59366;SDS011;45163;47.690;11.770;2022-09-29T05:58:35;3.77;;;1.50;;
59366;SDS011;45163;47.690;11.770;2022-09-29T06:01:09;1.43;;;1.33;;
59366;SDS011;45163;47.690;11.770;2022-09-29T06:03:53;2.67;;;1.70;;
59366;SDS011;45163;47.690;11.770;2022-09-29T06:06:21;2.00;;;1.80;;
59366;SDS011;45163;47.690;11.770;2022-09-29T06:08:49;8.70;;;2.07;;
59366;SDS011;45163;47.690;11.770;2022-09-29T06:11:17;2.97;;;1.80;;
59366;SDS011;45163;47.690;11.770;2022-09-29T06:13:48;2.37;;;1.77;;
59366;SDS011;45163;47.690;11.770;2022-09-29T06:16:16;3.73;;;1.63;;
59366;SDS011;45163;47.690;11.770;2022-09-29T06:18:44;4.53;;;2.37;;
59366;SDS011;45163;47.690;11.770;2022-09-29T06:21:12;4.00;;;2.00;;
59366;SDS011;45163;47.690;11.770;2022-09-29T06:23:40;5.23;;;2.33;;
59366;SDS011;45163;47.690;11.770;2022-09-29T06:26:07;16.50;;;5.47;;
59366;SDS011;45163;47.690;11.770;2022-09-29T06:28:38;13.67;;;5.97;;
59366;SDS011;45163;47.690;11.770;2022-09-29T06:31:05;12.73;;;5.87;;
59366;SDS011;45163;47.690;11.770;2022-09-29T06:33:34;7.63;;;3.47;;
59366;SDS011;45163;47.690;11.770;2022-09-29T06:36:05;9.37;;;4.00;;
59366;SDS011;45163;47.690;11.770;2022-09-29T06:38:54;7.87;;;3.10;;
59366;SDS011;45163;47.690;11.770;2022-09-29T06:41:21;4.20;;;2.27;;
59366;SDS011;45163;47.690;11.770;2022-09-29T06:43:47;2.63;;;1.80;;
59366;SDS011;45163;47.690;11.770;2022-09-29T06:46:13;2.83;;;1.60;;
59366;SDS011;45163;47.690;11.770;2022-09-29T06:48:39;1.60;;;1.20;;
59366;SDS011;45163;47.690;11.770;2022-09-29T06:51:06;1.20;;;1.10;;
59366;SDS011;45163;47.690;11.770;2022-09-29T06:53:33;1.70;;;0.93;;
59366;SDS011;45163;47.690;11.770;2022-09-29T06:56:00;1.03;;;0.93;;
59366;SDS011;45163;47.690;11.770;2022-09-29T06:58:27;6.73;;;4.40;;
59366;SDS011;45163;47.690;11.770;2022-09-29T07:00:53;7.57;;;4.57;;
59366;SDS011;45163;47.690;11.770;2022-09-29T07:03:20;20.27;;;9.87;;
59366;SDS011;45163;47.690;11.770;2022-09-29T07:05:46;11.20;;;5.90;;
59366;SDS011;45163;47.690;11.770;2022-09-29T07:08:12;3.57;;;2.67;;
59366;SDS011;45163;47.690;11.770;2022-09-29T07:10:38;5.10;;;2.93;;
59366;SDS011;45163;47.690;11.770;2022-09-29T07:13:05;2.40;;;1.97;;
59366;SDS011;45163;47.690;11.770;2022-09-29T07:15:33;2.57;;;1.80;;
59366;SDS011;45163;47.690;11.770;2022-09-29T07:18:00;6.50;;;2.27;;
59366;SDS011;45163;47.690;11.770;2022-09-29T07:20:27;2.00;;;1.80;;
59366;SDS011;45163;47.690;11.770;2022-09-29T07:22:54;2.13;;;1.60;;
59366;SDS011;45163;47.690;11.770;2022-09-29T07:25:20;3.23;;;2.40;;
59366;SDS011;45163;47.690;11.770;2022-09-29T07:27:47;1.43;;;1.33;;
59366;SDS011;45163;47.690;11.770;2022-09-29T07:30:14;1.70;;;1.27;;
59366;SDS011;45163;47.690;11.770;2022-09-29T07:32:40;1.53;;;1.27;;
59366;SDS011;45163;47.690;11.770;2022-09-29T07:35:06;1.47;;;1.23;;
59366;SDS011;45163;47.690;11.770;2022-09-29T07:37:32;3.60;;;2.00;;
59366;SDS011;45163;47.690;11.770;2022-09-29T07:39:58;2.93;;;1.40;;
59366;SDS011;45163;47.690;11.770;2022-09-29T07:42:24;0.97;;;0.87;;
59366;SDS011;45163;47.690;11.770;2022-09-29T07:44:54;1.20;;;1.10;;
59366;SDS011;45163;47.690;11.770;2022-09-29T07:47:20;2.37;;;1.50;;
59366;SDS011;45163;47.690;11.770;2022-09-29T07:49:46;0.87;;;0.87;;
59366;SDS011;45163;47.690;11.770;2022-09-29T07:52:13;1.47;;;1.30;;
59366;SDS011;45163;47.690;11.770;2022-09-29T07:54:40;1.63;;;0.80;;
59366;SDS011;45163;47.690;11.770;2022-09-29T07:57:06;2.00;;;1.10;;
59366;SDS011;45163;47.690;11.770;2022-09-29T07:59:32;1.50;;;1.07;;
59366;SDS011;45163;47.690;11.770;2022-09-29T08:01:58;0.70;;;0.70;;
59366;SDS011;45163;47.690;11.770;2022-09-29T08:04:24;1.30;;;1.00;;
59366;SDS011;45163;47.690;11.770;2022-09-29T08:06:50;1.10;;;1.00;;
59366;SDS011;45163;47.690;11.770;2022-09-29T08:09:16;1.00;;;1.00;;
59366;SDS011;45163;47.690;11.770;2022-09-29T08:11:42;0.90;;;0.90;;
59366;SDS011;45163;47.690;11.770;2022-09-29T08:14:09;1.70;;;1.20;;
59366;SDS011;45163;47.690;11.770;2022-09-29T08:16:36;3.20;;;1.20;;
59366;SDS011;45163;47.690;11.770;2022-09-29T08:19:02;2.03;;;0.90;;
59366;SDS011;45163;47.690;11.770;2022-09-29T08:21:30;1.70;;;1.40;;
59366;SDS011;45163;47.690;11.770;2022-09-29T08:24:01;0.83;;;0.83;;
59366;SDS011;45163;47.690;11.770;2022-09-29T08:26:30;2.27;;;0.80;;
59366;SDS011;45163;47.690;11.770;2022-09-29T08:29:03;5.57;;;1.10;;
59366;SDS011;45163;47.690;11.770;2022-09-29T08:31:31;1.17;;;1.07;;
59366;SDS011;45163;47.690;11.770;2022-09-29T08:33:58;5.47;;;1.40;;
59366;SDS011;45163;47.690;11.770;2022-09-29T08:36:24;5.23;;;0.90;;
59366;SDS011;45163;47.690;11.770;2022-09-29T08:38:51;2.37;;;0.70;;
59366;SDS011;45163;47.690;11.770;2022-09-29T08:46:38;0.80;;;0.70;;
59366;SDS011;45163;47.690;11.770;2022-09-29T08:49:34;0.60;;;0.60;;
59366;SDS011;45163;47.690;11.770;2022-09-29T08:57:40;1.10;;;0.47;;
59366;SDS011;45163;47.690;11.770;2022-09-29T09:00:11;0.63;;;0.63;;
59366;SDS011;45163;47.690;11.770;2022-09-29T09:05:21;2.07;;;1.20;;
59366;SDS011;45163;47.690;11.770;2022-09-29T09:10:37;0.80;;;0.80;;
59366;SDS011;45163;47.690;11.770;2022-09-29T09:13:17;0.83;;;0.70;;
59366;SDS011;45163;47.690;11.770;2022-09-29T09:24:16;0.43;;;0.43;;
59366;SDS011;45163;47.690;11.770;2022-09-29T09:27:04;0.67;;;0.67;;
59366;SDS011;45163;47.690;11.770;2022-09-29T09:29:37;0.57;;;0.57;;
59366;SDS011;45163;47.690;11.770;2022-09-29T09:32:20;0.50;;;0.50;;
59366;SDS011;45163;47.690;11.770;2022-09-29T09:34:54;0.30;;;0.30;;
59366;SDS011;45163;47.690;11.770;2022-09-29T09:37:33;0.27;;;0.27;;
59366;SDS011;45163;47.690;11.770;2022-09-29T09:42:42;0.60;;;0.60;;
59366;SDS011;45163;47.690;11.770;2022-09-29T09:47:57;0.70;;;0.70;;
59366;SDS011;45163;47.690;11.770;2022-09-29T09:50:27;1.57;;;0.90;;
59366;SDS011;45163;47.690;11.770;2022-09-29T09:53:02;0.83;;;0.70;;
59366;SDS011;45163;47.690;11.770;2022-09-29T09:55:34;2.07;;;1.00;;
59366;SDS011;45163;47.690;11.770;2022-09-29T10:03:21;2.40;;;0.90;;
59366;SDS011;45163;47.690;11.770;2022-09-29T10:05:47;1.73;;;0.80;;
59366;SDS011;45163;47.690;11.770;2022-09-29T10:08:33;1.20;;;1.10;;
59366;SDS011;45163;47.690;11.770;2022-09-29T10:11:26;1.20;;;1.10;;
59366;SDS011;45163;47.690;11.770;2022-09-29T10:17:01;1.33;;;1.10;;
59366;SDS011;45163;47.690;11.770;2022-09-29T10:22:35;1.07;;;0.97;;
59366;SDS011;45163;47.690;11.770;2022-09-29T10:25:05;0.80;;;0.80;;
59366;SDS011;45163;47.690;11.770;2022-09-29T10:27:33;2.37;;;1.23;;
59366;SDS011;45163;47.690;11.770;2022-09-29T10:30:04;1.33;;;1.23;;
59366;SDS011;45163;47.690;11.770;2022-09-29T10:32:43;1.13;;;1.03;;
59366;SDS011;45163;47.690;11.770;2022-09-29T10:35:16;1.50;;;0.93;;
59366;SDS011;45163;47.690;11.770;2022-09-29T10:37:47;2.73;;;1.30;;
59366;SDS011;45163;47.690;11.770;2022-09-29T10:40:27;1.13;;;1.10;;
59366;SDS011;45163;47.690;11.770;2022-09-29T10:42:54;0.97;;;0.90;;
59366;SDS011;45163;47.690;11.770;2022-09-29T10:45:28;1.03;;;0.90;;
59366;SDS011;45163;47.690;11.770;2022-09-29T10:52:52;2.70;;;1.23;;
59366;SDS011;45163;47.690;11.770;2022-09-29T10:55:22;1.47;;;1.10;;
59366;SDS011;45163;47.690;11.770;2022-09-29T10:57:53;1.20;;;1.10;;
59366;SDS011;45163;47.690;11.770;2022-09-29T11:00:34;0.97;;;0.97;;
59366;SDS011;45163;47.690;11.770;2022-09-29T11:03:25;1.00;;;1.00;;
59366;SDS011;45163;47.690;11.770;2022-09-29T11:05:55;1.00;;;0.90;;
59366;SDS011;45163;47.690;11.770;2022-09-29T11:08:24;1.57;;;1.20;;
59366;SDS011;45163;47.690;11.770;2022-09-29T11:13:59;0.80;;;0.80;;
59366;SDS011;45163;47.690;11.770;2022-09-29T11:16:26;1.17;;;1.07;;
59366;SDS011;45163;47.690;11.770;2022-09-29T11:18:54;1.00;;;1.00;;
59366;SDS011;45163;47.690;11.770;2022-09-29T11:26:57;0.93;;;0.93;;
59366;SDS011;45163;47.690;11.770;2022-09-29T11:37:58;3.07;;;1.17;;
59366;SDS011;45163;47.690;11.770;2022-09-29T11:57:09;2.80;;;1.30;;
59366;SDS011;45163;47.690;11.770;2022-09-29T12:16:53;1.60;;;1.50;;
59366;SDS011;45163;47.690;11.770;2022-09-29T12:19:24;1.40;;;1.30;;
59366;SDS011;45163;47.690;11.770;2022-09-29T12:21:54;1.50;;;1.40;;
59366;SDS011;45163;47.690;11.770;2022-09-29T12:26:51;3.33;;;1.27;;
59366;SDS011;45163;47.690;11.770;2022-09-29T12:30:01;1.57;;;1.47;;
59366;SDS011;45163;47.690;11.770;2022-09-29T12:35:11;1.77;;;1.60;;
59366;SDS011;45163;47.690;11.770;2022-09-29T12:40:56;4.63;;;1.80;;
59366;SDS011;45163;47.690;11.770;2022-09-29T12:46:25;1.63;;;1.23;;
59366;SDS011;45163;47.690;11.770;2022-09-29T12:49:01;2.47;;;1.27;;
59366;SDS011;45163;47.690;11.770;2022-09-29T12:51:37;1.20;;;0.90;;
59366;SDS011;45163;47.690;11.770;2022-09-29T12:57:05;1.50;;;1.23;;
59366;SDS011;45163;47.690;11.770;2022-09-29T12:59:56;2.20;;;1.60;;
59366;SDS011;45163;47.690;11.770;2022-09-29T13:10:54;2.10;;;1.90;;
59366;SDS011;45163;47.690;11.770;2022-09-29T13:27:42;1.63;;;1.53;;
59366;SDS011;45163;47.690;11.770;2022-09-29T13:35:28;6.70;;;3.00;;
59366;SDS011;45163;47.690;11.770;2022-09-29T13:38:04;3.67;;;2.73;;
59366;SDS011;45163;47.690;11.770;2022-09-29T13:40:33;5.60;;;3.40;;
59366;SDS011;45163;47.690;11.770;2022-09-29T13:43:00;5.00;;;2.90;;
59366;SDS011;45163;47.690;11.770;2022-09-29T13:47:59;1.97;;;1.60;;
59366;SDS011;45163;47.690;11.770;2022-09-29T14:01:05;2.30;;;1.60;;
59366;SDS011;45163;47.690;11.770;2022-09-29T14:03:41;1.80;;;1.70;;
59366;SDS011;45163;47.690;11.770;2022-09-29T14:06:13;2.53;;;2.20;;
59366;SDS011;45163;47.690;11.770;2022-09-29T14:08:44;2.90;;;1.60;;
59366;SDS011;45163;47.690;11.770;2022-09-29T14:12:16;3.30;;;2.50;;
59366;SDS011;45163;47.690;11.770;2022-09-29T14:19:23;2.20;;;1.80;;
59366;SDS011;45163;47.690;11.770;2022-09-29T14:21:59;2.20;;;2.00;;
59366;SDS011;45163;47.690;11.770;2022-09-29T14:29:49;2.60;;;2.20;;
59366;SDS011;45163;47.690;11.770;2022-09-29T14:35:22;5.93;;;2.40;;
59366;SDS011;45163;47.690;11.770;2022-09-29T14:37:55;3.13;;;2.20;;
59366;SDS011;45163;47.690;11.770;2022-09-29T14:40:56;5.27;;;2.40;;
59366;SDS011;45163;47.690;11.770;2022-09-29T14:43:25;3.10;;;2.80;;
59366;SDS011;45163;47.690;11.770;2022-09-29T14:55:50;3.50;;;2.70;;
59366;SDS011;45163;47.690;11.770;2022-09-29T14:58:44;4.77;;;3.20;;
59366;SDS011;45163;47.690;11.770;2022-09-29T15:01:26;3.73;;;3.03;;
59366;SDS011;45163;47.690;11.770;2022-09-29T15:04:40;3.40;;;2.87;;
59366;SDS011;45163;47.690;11.770;2022-09-29T15:07:26;4.03;;;3.63;;
59366;SDS011;45163;47.690;11.770;2022-09-29T15:09:55;4.00;;;2.80;;
59366;SDS011;45163;47.690;11.770;2022-09-29T15:12:24;3.50;;;2.77;;
59366;SDS011;45163;47.690;11.770;2022-09-29T15:14:57;3.20;;;2.60;;
59366;SDS011;45163;47.690;11.770;2022-09-29T15:17:48;3.47;;;2.90;;
59366;SDS011;45163;47.690;11.770;2022-09-29T15:20:21;3.63;;;3.33;;
59366;SDS011;45163;47.690;11.770;2022-09-29T15:22:54;4.10;;;3.30;;
59366;SDS011;45163;47.690;11.770;2022-09-29T15:25:53;4.90;;;3.33;;
59366;SDS011;45163;47.690;11.770;2022-09-29T15:28:37;3.40;;;3.10;;
59366;SDS011;45163;47.690;11.770;2022-09-29T15:31:07;3.67;;;2.60;;
59366;SDS011;45163;47.690;11.770;2022-09-29T15:33:41;2.87;;;2.47;;
59366;SDS011;45163;47.690;11.770;2022-09-29T15:36:18;2.63;;;2.43;;
59366;SDS011;45163;47.690;11.770;2022-09-29T15:38:54;3.50;;;2.50;;
59366;SDS011;45163;47.690;11.770;2022-09-29T15:41:29;3.17;;;2.70;;
59366;SDS011;45163;47.690;11.770;2022-09-29T15:43:59;4.30;;;3.00;;
59366;SDS011;45163;47.690;11.770;2022-09-29T15:46:34;3.47;;;3.17;;
59366;SDS011;45163;47.690;11.770;2022-09-29T15:51:36;4.37;;;3.30;;
59366;SDS011;45163;47.690;11.770;2022-09-29T15:54:04;3.60;;;3.30;;
59366;SDS011;45163;47.690;11.770;2022-09-29T15:56:36;6.63;;;3.30;;
59366;SDS011;45163;47.690;11.770;2022-09-29T15:59:43;3.50;;;3.20;;
59366;SDS011;45163;47.690;11.770;2022-09-29T16:02:25;3.47;;;3.17;;
59366;SDS011;45163;47.690;11.770;2022-09-29T16:04:57;4.27;;;3.87;;
59366;SDS011;45163;47.690;11.770;2022-09-29T16:07:40;3.83;;;3.53;;
59366;SDS011;45163;47.690;11.770;2022-09-29T16:10:17;4.00;;;3.60;;
59366;SDS011;45163;47.690;11.770;2022-09-29T16:15:33;6.73;;;4.33;;
59366;SDS011;45163;47.690;11.770;2022-09-29T16:18:08;5.40;;;4.90;;
59366;SDS011;45163;47.690;11.770;2022-09-29T16:20:41;5.50;;;4.80;;
59366;SDS011;45163;47.690;11.770;2022-09-29T16:28:34;3.60;;;3.30;;
59366;SDS011;45163;47.690;11.770;2022-09-29T16:31:04;5.03;;;4.20;;
59366;SDS011;45163;47.690;11.770;2022-09-29T16:33:43;6.07;;;4.60;;
59366;SDS011;45163;47.690;11.770;2022-09-29T16:36:17;5.47;;;4.97;;
59366;SDS011;45163;47.690;11.770;2022-09-29T16:38:47;5.20;;;4.70;;
59366;SDS011;45163;47.690;11.770;2022-09-29T16:49:24;3.83;;;3.13;;
59366;SDS011;45163;47.690;11.770;2022-09-29T16:51:54;3.13;;;2.83;;
59366;SDS011;45163;47.690;11.770;2022-09-29T16:57:24;4.83;;;3.03;;
59366;SDS011;45163;47.690;11.770;2022-09-29T16:59:56;6.60;;;3.63;;
59366;SDS011;45163;47.690;11.770;2022-09-29T17:02:24;2.83;;;2.30;;
59366;SDS011;45163;47.690;11.770;2022-09-29T17:04:52;2.83;;;2.53;;
59366;SDS011;45163;47.690;11.770;2022-09-29T17:07:22;3.30;;;3.00;;
59366;SDS011;45163;47.690;11.770;2022-09-29T17:09:52;3.30;;;3.00;;
59366;SDS011;45163;47.690;11.770;2022-09-29T17:12:29;3.40;;;3.10;;
59366;SDS011;45163;47.690;11.770;2022-09-29T17:14:57;3.93;;;2.83;;
59366;SDS011;45163;47.690;11.770;2022-09-29T17:17:26;4.13;;;2.53;;
59366;SDS011;45163;47.690;11.770;2022-09-29T17:19:54;3.30;;;2.60;;
59366;SDS011;45163;47.690;11.770;2022-09-29T17:22:33;3.70;;;2.83;;
59366;SDS011;45163;47.690;11.770;2022-09-29T17:25:03;2.50;;;2.30;;
59366;SDS011;45163;47.690;11.770;2022-09-29T17:27:32;4.53;;;3.40;;
59366;SDS011;45163;47.690;11.770;2022-09-29T17:30:18;8.93;;;3.80;;
59366;SDS011;45163;47.690;11.770;2022-09-29T17:32:47;6.17;;;4.87;;
59366;SDS011;45163;47.690;11.770;2022-09-29T17:35:20;7.57;;;5.10;;
59366;SDS011;45163;47.690;11.770;2022-09-29T17:37:53;5.13;;;4.07;;
59366;SDS011;45163;47.690;11.770;2022-09-29T17:42:51;7.83;;;5.37;;
59366;SDS011;45163;47.690;11.770;2022-09-29T17:45:20;8.13;;;5.90;;
59366;SDS011;45163;47.690;11.770;2022-09-29T17:47:51;12.83;;;6.90;;
59366;SDS011;45163;47.690;11.770;2022-09-29T17:50:26;9.30;;;6.40;;
59366;SDS011;45163;47.690;11.770;2022-09-29T17:52:58;10.53;;;7.73;;
59366;SDS011;45163;47.690;11.770;2022-09-29T17:55:25;8.63;;;6.00;;
59366;SDS011;45163;47.690;11.770;2022-09-29T17:57:53;9.73;;;6.77;;
59366;SDS011;45163;47.690;11.770;2022-09-29T18:00:24;7.07;;;5.50;;
59366;SDS011;45163;47.690;11.770;2022-09-29T18:02:54;6.80;;;5.30;;
59366;SDS011;45163;47.690;11.770;2022-09-29T18:05:22;5.43;;;4.90;;
59366;SDS011;45163;47.690;11.770;2022-09-29T18:07:51;5.63;;;4.77;;
59366;SDS011;45163;47.690;11.770;2022-09-29T18:13:09;11.43;;;7.20;;
59366;SDS011;45163;47.690;11.770;2022-09-29T18:15:36;7.07;;;5.60;;
59366;SDS011;45163;47.690;11.770;2022-09-29T18:18:04;10.27;;;4.90;;
59366;SDS011;45163;47.690;11.770;2022-09-29T18:20:33;6.03;;;4.33;;
59366;SDS011;45163;47.690;11.770;2022-09-29T18:23:07;11.00;;;5.23;;
59366;SDS011;45163;47.690;11.770;2022-09-29T18:25:35;5.63;;;4.93;;
59366;SDS011;45163;47.690;11.770;2022-09-29T18:28:03;5.80;;;4.87;;
59366;SDS011;45163;47.690;11.770;2022-09-29T18:30:32;6.53;;;5.20;;
59366;SDS011;45163;47.690;11.770;2022-09-29T18:33:04;6.17;;;5.57;;
59366;SDS011;45163;47.690;11.770;2022-09-29T18:35:39;6.67;;;5.43;;
59366;SDS011;45163;47.690;11.770;2022-09-29T18:38:08;6.03;;;5.23;;
59366;SDS011;45163;47.690;11.770;2022-09-29T18:40:38;8.80;;;5.40;;
59366;SDS011;45163;47.690;11.770;2022-09-29T18:43:05;6.67;;;5.40;;
59366;SDS011;45163;47.690;11.770;2022-09-29T18:45:34;7.33;;;5.83;;
59366;SDS011;45163;47.690;11.770;2022-09-29T18:48:04;6.60;;;5.50;;
59366;SDS011;45163;47.690;11.770;2022-09-29T18:50:36;7.80;;;7.00;;
59366;SDS011;45163;47.690;11.770;2022-09-29T18:53:11;8.73;;;7.30;;
59366;SDS011;45163;47.690;11.770;2022-09-29T18:55:39;8.57;;;7.40;;
59366;SDS011;45163;47.690;11.770;2022-09-29T18:58:11;5.87;;;5.27;;
59366;SDS011;45163;47.690;11.770;2022-09-29T19:00:40;6.33;;;4.87;;